Time;durP1;ratioP1;P1;durP2;ratioP2;P2;SDS_P1;SDS_P2;PMS_P1;PMS_P2;Temp;Humidity;BMP_temperature;BMP_pressure;BME280_temperature;BME280_humidity;BME280_pressure;Samples;Min_cycle;Max_cycle;Signal;HPM_P1;HPM_P2
2022/01/08 00:01:40;;;;;;;;;0.00;0.00;;;;;7.39;70.31;101232.28;5114580;27;59531;-75
2022/01/08 00:04:05;;;;;;;;;0.00;0.00;;;;;7.35;70.46;101236.56;5114489;27;58929;-74
2022/01/08 00:06:31;;;;;;;;;0.00;0.00;;;;;7.32;70.21;101245.25;5095967;27;53878;-75
2022/01/08 00:08:56;;;;;;;;;0.00;0.00;;;;;7.29;70.19;101247.75;5092592;27;53091;-75
2022/01/08 00:11:25;;;;;;;;;1.00;0.00;;;;;7.24;70.21;101251.97;5114747;27;45717;-75
2022/01/08 00:13:50;;;;;;;;;0.00;0.00;;;;;7.24;70.30;101245.84;5080360;27;45555;-75
2022/01/08 00:16:16;;;;;;;;;0.50;0.00;;;;;7.23;70.04;101254.56;5096305;27;45595;-75
2022/01/08 00:18:41;;;;;;;;;0.00;0.00;;;;;7.20;70.30;101271.13;5078793;27;45576;-75
2022/01/08 00:21:07;;;;;;;;;0.00;0.00;;;;;7.18;70.54;101258.78;5094766;27;63259;-75
2022/01/08 00:23:32;;;;;;;;;0.00;0.00;;;;;7.16;70.68;101256.13;5114081;27;52232;-76
2022/01/08 00:26:00;;;;;;;;;1.00;0.00;;;;;7.15;70.54;101261.31;5114933;27;46349;-75
2022/01/08 00:28:26;;;;;;;;;1.00;0.00;;;;;7.16;70.51;101257.84;5112895;27;45400;-75
2022/01/08 00:30:52;;;;;;;;;0.00;0.00;;;;;7.14;70.36;101264.78;5114265;27;46562;-75
2022/01/08 00:33:17;;;;;;;;;0.00;0.00;;;;;7.12;70.64;101261.22;5095876;27;45459;-75
2022/01/08 00:35:42;;;;;;;;;0.00;0.00;;;;;7.08;70.45;101255.88;5114835;27;45385;-74
2022/01/08 00:38:36;;;;;;;;;0.00;0.00;;;;;7.05;70.19;101270.63;5112703;27;53354;-75
2022/01/08 00:41:02;;;;;;;;;0.00;0.00;;;;;7.04;70.40;101277.63;5091416;27;46629;-75
2022/01/08 00:43:30;;;;;;;;;0.75;0.00;;;;;7.01;70.54;101290.63;5114196;27;45427;-77
2022/01/08 00:46:05;;;;;;;;;0.00;0.00;;;;;6.97;70.52;101288.75;5094994;27;45464;-76
2022/01/08 00:48:34;;;;;;;;;1.00;0.00;;;;;7.01;70.94;101285.38;5066313;27;45546;-76
2022/01/08 00:50:59;;;;;;;;;1.00;0.00;;;;;7.02;70.69;101297.66;5077972;27;48144;-77
2022/01/08 00:53:25;;;;;;;;;0.00;0.00;;;;;6.98;70.77;101292.28;5114140;27;45358;-76
2022/01/08 00:55:52;;;;;;;;;0.00;0.00;;;;;7.01;70.90;101311.66;5113961;27;45892;-76
2022/01/08 00:58:18;;;;;;;;;0.00;0.00;;;;;7.03;71.11;101316.94;5096059;27;45576;-76
2022/01/08 01:00:43;;;;;;;;;0.00;0.00;;;;;6.98;71.01;101311.56;5094017;27;47153;-77
2022/01/08 01:03:09;;;;;;;;;0.00;0.00;;;;;7.03;71.13;101312.59;5111448;27;48932;-76
2022/01/08 01:05:37;;;;;;;;;0.00;0.00;;;;;7.03;71.42;101319.56;5112304;27;45328;-76
2022/01/08 01:08:05;;;;;;;;;1.00;1.00;;;;;7.03;71.32;101316.94;5113218;27;45530;-77
2022/01/08 01:10:31;;;;;;;;;1.00;1.00;;;;;7.00;71.33;101303.72;5088210;27;45536;-77
2022/01/08 01:12:56;;;;;;;;;1.00;1.00;;;;;7.04;71.12;101313.50;5112454;27;59489;-77
2022/01/08 01:15:22;;;;;;;;;2.00;2.00;;;;;7.03;71.43;101307.34;5114115;27;45420;-76
2022/01/08 01:17:47;;;;;;;;;1.00;1.00;;;;;6.97;71.47;101308.84;5113685;27;50388;-76
2022/01/08 01:20:14;;;;;;;;;1.00;1.00;;;;;7.00;71.43;101316.84;5113417;27;46478;-76
2022/01/08 01:25:31;;;;;;;;;1.00;1.00;;;;;6.93;71.40;101318.38;5113545;27;45560;-76
2022/01/08 01:28:16;;;;;;;;;1.00;1.00;;;;;6.93;71.38;101318.38;5091355;27;45490;-77
2022/01/08 01:41:38;;;;;;;;;5.00;2.00;;;;;6.83;71.00;101301.44;5113212;27;45760;-76
2022/01/08 01:49:19;;;;;;;;;1.00;1.00;;;;;6.84;70.62;101320.69;5113464;27;45401;-77
2022/01/08 01:51:47;;;;;;;;;3.25;1.75;;;;;6.83;71.10;101313.66;5115334;27;46631;-77
2022/01/08 01:54:13;;;;;;;;;4.25;2.00;;;;;6.83;71.15;101325.06;5098741;27;45486;-76
2022/01/08 01:56:38;;;;;;;;;1.25;1.25;;;;;6.79;71.29;101320.53;5116868;27;45855;-77
2022/01/08 01:59:04;;;;;;;;;2.75;1.00;;;;;6.79;71.07;101320.53;5081536;27;45598;-76
2022/01/08 02:01:29;;;;;;;;;0.25;0.25;;;;;6.79;71.15;101315.28;5117240;27;46861;-76
2022/01/08 02:03:54;;;;;;;;;2.00;2.00;;;;;6.78;71.36;101313.50;5116066;27;56406;-77
2022/01/08 02:06:20;;;;;;;;;1.50;1.00;;;;;6.77;71.07;101306.47;5116843;27;45740;-77
2022/01/08 02:08:45;;;;;;;;;1.00;1.00;;;;;6.80;71.21;101310.94;5116492;27;45606;-77
2022/01/08 02:11:11;;;;;;;;;0.75;0.75;;;;;6.81;71.45;101316.22;5116700;27;46541;-77
2022/01/08 02:13:36;;;;;;;;;1.00;1.00;;;;;6.77;71.46;101311.72;5116793;27;45513;-76
2022/01/08 02:16:03;;;;;;;;;1.00;1.00;;;;;6.81;71.23;101323.19;5098392;27;45465;-77
2022/01/08 02:18:29;;;;;;;;;1.00;1.00;;;;;6.86;71.38;101323.38;5098318;27;45612;-76
2022/01/08 02:20:55;;;;;;;;;2.00;1.00;;;;;6.85;71.15;101321.59;5115563;27;46503;-76
2022/01/08 02:23:20;;;;;;;;;1.00;0.00;;;;;6.86;71.33;101323.38;5115238;27;45573;-76
2022/01/08 02:25:46;;;;;;;;;2.25;1.00;;;;;6.87;71.22;101338.25;5116530;27;45429;-77
2022/01/08 02:28:11;;;;;;;;;1.00;1.00;;;;;6.86;70.98;101333.88;5114845;27;53346;-76
2022/01/08 02:30:36;;;;;;;;;2.00;1.00;;;;;6.86;71.25;101331.25;5115702;27;59823;-76
2022/01/08 02:33:02;;;;;;;;;0.25;0.25;;;;;6.85;71.11;101330.34;5116236;27;50605;-76
2022/01/08 02:35:27;;;;;;;;;1.00;1.00;;;;;6.85;71.29;101329.47;5116847;27;45417;-76
2022/01/08 02:37:53;;;;;;;;;1.00;1.00;;;;;6.85;71.15;101332.09;5116434;27;53414;-77
2022/01/08 02:40:20;;;;;;;;;1.00;1.00;;;;;6.83;71.05;101339.91;5116871;27;46490;-76
2022/01/08 02:43:01;;;;;;;;;1.75;0.25;;;;;6.85;71.08;101334.72;5116650;27;45796;-77
2022/01/08 02:45:26;;;;;;;;;0.00;0.00;;;;;6.83;71.34;101324.16;5103823;27;45421;-76
2022/01/08 02:47:52;;;;;;;;;1.50;1.00;;;;;6.80;71.17;101330.19;5116361;27;45484;-76
2022/01/08 02:50:18;;;;;;;;;1.00;1.00;;;;;6.80;71.07;101324.94;5115994;27;45965;-77
2022/01/08 02:52:44;;;;;;;;;0.00;0.00;;;;;6.80;71.49;101342.41;5115975;27;45612;-77
2022/01/08 02:55:10;;;;;;;;;1.00;1.00;;;;;6.79;71.06;101346.78;5115712;27;45488;-77
2022/01/08 02:57:35;;;;;;;;;2.00;2.00;;;;;6.82;71.14;101349.53;5116075;27;45595;-77
2022/01/08 03:00:00;;;;;;;;;0.00;0.00;;;;;6.82;71.22;101346.00;5115218;27;55344;-76
2022/01/08 03:02:26;;;;;;;;;1.00;1.00;;;;;6.83;71.40;101347.78;5114514;27;45534;-77
2022/01/08 03:04:53;;;;;;;;;0.25;0.25;;;;;6.83;71.12;101342.53;5115282;27;56553;-77
2022/01/08 03:07:40;;;;;;;;;1.00;1.00;;;;;6.66;71.16;101322.66;5116225;27;45441;-76
2022/01/08 03:10:18;;;;;;;;;0.00;0.00;;;;;6.75;71.01;101346.63;5044976;27;47152;-76
2022/01/08 03:12:44;;;;;;;;;4.75;0.25;;;;;6.73;71.39;101348.31;5115684;27;45514;-77
2022/01/08 03:15:10;;;;;;;;;1.00;0.00;;;;;6.73;71.16;101350.94;5077148;27;45632;-76
2022/01/08 03:17:36;;;;;;;;;0.00;0.00;;;;;6.73;71.17;101345.69;5096443;27;45443;-77
2022/01/08 03:20:05;;;;;;;;;0.00;0.00;;;;;6.72;71.38;101331.69;5115217;27;46298;-76
2022/01/08 03:22:31;;;;;;;;;1.00;1.00;;;;;6.70;71.30;101314.06;5114570;27;45452;-76
2022/01/08 03:24:56;;;;;;;;;1.25;0.00;;;;;6.73;71.15;101335.19;5097134;27;45473;-76
2022/01/08 03:27:22;;;;;;;;;0.00;0.00;;;;;6.70;71.33;101320.22;5113890;27;52304;-77
2022/01/08 03:29:47;;;;;;;;;0.00;0.00;;;;;6.67;71.51;101325.38;5114703;27;48517;-77
2022/01/08 03:32:13;;;;;;;;;1.00;0.00;;;;;6.66;71.26;101328.84;5115363;27;45424;-77
2022/01/08 03:34:38;;;;;;;;;0.00;0.00;;;;;6.66;71.40;101333.16;5114919;27;48417;-76
2022/01/08 03:37:03;;;;;;;;;0.00;0.00;;;;;6.65;71.51;101334.00;5097099;27;45591;-76
2022/01/08 03:39:29;;;;;;;;;1.25;0.00;;;;;6.61;71.18;101325.16;5114727;27;60965;-76
2022/01/08 03:41:54;;;;;;;;;0.00;0.00;;;;;6.66;71.24;101341.03;5095362;27;58047;-76
2022/01/08 03:44:20;;;;;;;;;0.00;0.00;;;;;6.66;71.47;101325.28;5115375;27;46029;-76
2022/01/08 03:46:45;;;;;;;;;3.25;0.00;;;;;6.62;71.10;101324.31;5084952;27;45530;-76
2022/01/08 03:49:22;;;;;;;;;1.50;0.00;;;;;6.69;71.27;101339.44;5115103;27;46129;-76
2022/01/08 03:51:47;;;;;;;;;0.50;0.00;;;;;6.70;71.12;101346.44;5115364;27;45492;-76
2022/01/08 03:54:13;;;;;;;;;1.00;0.00;;;;;6.71;71.28;101336.84;5115080;27;47295;-76
2022/01/08 03:56:38;;;;;;;;;0.00;0.00;;;;;6.68;71.58;101328.88;5114593;27;50958;-76
2022/01/08 03:59:04;;;;;;;;;0.00;0.00;;;;;6.71;71.21;101327.28;5114440;27;63149;-76
2022/01/08 04:01:29;;;;;;;;;1.75;0.00;;;;;6.64;71.16;101309.50;5114135;27;60887;-76
2022/01/08 04:03:54;;;;;;;;;0.75;0.00;;;;;6.62;71.19;101311.19;5114523;27;53480;-77
2022/01/08 04:06:20;;;;;;;;;1.00;0.00;;;;;6.63;70.87;101328.72;5114535;27;52358;-76
2022/01/08 04:08:45;;;;;;;;;0.00;0.00;;;;;6.62;71.11;101332.19;5114856;27;51655;-76
2022/01/08 04:11:10;;;;;;;;;0.00;0.00;;;;;6.64;71.24;101345.34;5114771;27;45485;-77
2022/01/08 04:13:39;;;;;;;;;0.00;0.00;;;;;6.66;71.38;101341.03;5114147;27;45381;-76
2022/01/08 04:16:14;;;;;;;;;2.00;0.00;;;;;6.69;71.50;101347.31;5114953;27;45399;-76
2022/01/08 04:18:40;;;;;;;;;0.00;0.00;;;;;6.71;71.24;101335.16;5114448;27;45723;-77
2022/01/08 04:21:39;;;;;;;;;0.25;0.25;;;;;6.76;71.44;101324.78;5108430;27;58294;-77
2022/01/08 04:23:54;;;;;;;;;0.00;0.00;;;;;6.79;71.36;101331.03;5113493;27;45416;-76
2022/01/08 04:26:21;;;;;;;;;0.00;0.00;;;;;6.81;71.42;101324.09;5114954;27;45436;-76
2022/01/08 04:28:47;;;;;;;;;0.00;0.00;;;;;6.85;71.38;101316.34;5112433;27;46571;-76
2022/01/08 04:31:13;;;;;;;;;0.00;0.00;;;;;6.88;70.96;101316.47;5114423;27;45495;-76
2022/01/08 04:33:39;;;;;;;;;3.00;0.25;;;;;6.91;71.19;101321.78;5114606;27;45456;-77
2022/01/08 04:36:04;;;;;;;;;3.00;0.25;;;;;6.92;70.97;101321.81;5094958;27;55023;-77
2022/01/08 04:38:31;;;;;;;;;0.00;0.00;;;;;6.94;71.18;101322.78;5113939;27;61903;-76
2022/01/08 04:40:57;;;;;;;;;0.50;0.50;;;;;6.96;71.14;101320.22;5114502;27;45379;-76
2022/01/08 04:43:23;;;;;;;;;0.00;0.00;;;;;6.97;70.97;101317.63;5114552;27;45395;-76
2022/01/08 04:45:49;;;;;;;;;1.00;1.00;;;;;6.98;70.99;101311.56;5114577;27;45635;-76
2022/01/08 04:48:15;;;;;;;;;0.00;0.00;;;;;6.98;70.89;101315.91;5114383;27;47386;-77
2022/01/08 04:50:41;;;;;;;;;0.00;0.00;;;;;6.96;71.13;101323.72;5113971;27;45410;-76
2022/01/08 04:53:07;;;;;;;;;0.00;0.00;;;;;6.95;71.07;101336.81;5114016;27;54242;-76
2022/01/08 04:55:32;;;;;;;;;1.25;0.00;;;;;6.93;71.13;101338.50;5113513;27;54162;-77
2022/01/08 04:57:58;;;;;;;;;0.00;0.00;;;;;7.01;71.08;101355.38;5113269;27;62884;-76
2022/01/08 05:00:23;;;;;;;;;0.00;0.00;;;;;7.01;71.19;101348.41;5113807;27;60869;-76
2022/01/08 05:02:48;;;;;;;;;1.00;0.00;;;;;7.04;71.29;101355.50;5114014;27;46755;-77
2022/01/08 05:05:14;;;;;;;;;0.00;0.00;;;;;7.11;70.91;101365.38;5114343;27;45486;-76
2022/01/08 05:07:39;;;;;;;;;0.50;0.00;;;;;7.15;70.90;101354.13;5113937;27;46624;-76
2022/01/08 05:10:05;;;;;;;;;0.00;0.00;;;;;7.19;70.88;101352.47;5114105;27;45386;-76
2022/01/08 05:12:31;;;;;;;;;1.00;0.00;;;;;7.24;70.83;101343.00;5113830;27;45462;-77
2022/01/08 05:14:57;;;;;;;;;0.00;0.00;;;;;7.27;70.44;101338.75;5114351;27;45419;-76
2022/01/08 05:17:29;;;;;;;;;0.75;0.00;;;;;7.32;70.74;101326.66;5113479;27;47491;-76
2022/01/08 05:19:56;;;;;;;;;0.00;0.00;;;;;7.36;70.53;101319.78;5114232;27;45386;-77
2022/01/08 05:22:28;;;;;;;;;0.00;0.00;;;;;7.40;70.79;101318.13;5113823;27;45549;-76
2022/01/08 05:24:53;;;;;;;;;0.00;0.00;;;;;7.35;70.70;101315.38;5114610;27;45907;-76
2022/01/08 05:27:18;;;;;;;;;1.25;1.00;;;;;7.42;70.72;101332.22;5115881;27;47507;-76
2022/01/08 05:29:45;;;;;;;;;0.75;0.75;;;;;7.39;70.43;101333.00;5116442;27;50350;-76
2022/01/08 05:32:16;;;;;;;;;0.25;0.00;;;;;7.41;70.73;101323.44;5117568;27;45524;-76
2022/01/08 05:34:44;;;;;;;;;2.00;0.00;;;;;7.44;70.72;101318.28;5099945;27;45541;-76
2022/01/08 05:37:10;;;;;;;;;1.00;1.00;;;;;7.48;70.69;101309.66;5117129;27;45905;-76
2022/01/08 05:39:35;;;;;;;;;1.00;0.00;;;;;7.53;70.56;101317.69;5117497;27;45531;-77
2022/01/08 05:42:01;;;;;;;;;0.00;0.00;;;;;7.57;70.76;101309.94;5117497;27;45609;-77
2022/01/08 05:44:26;;;;;;;;;2.00;0.25;;;;;7.63;70.87;101295.22;5117698;27;47686;-76
2022/01/08 05:46:52;;;;;;;;;0.00;0.00;;;;;7.63;70.71;101285.59;5116495;27;64636;-76
2022/01/08 05:49:17;;;;;;;;;0.00;0.00;;;;;7.73;70.72;101300.78;5116830;27;48905;-77
2022/01/08 05:51:43;;;;;;;;;0.00;0.00;;;;;7.78;70.84;101293.06;5117076;27;45538;-76
2022/01/08 05:54:08;;;;;;;;;3.00;0.00;;;;;7.79;70.74;101285.19;5117388;27;45640;-77
2022/01/08 05:56:34;;;;;;;;;2.00;0.00;;;;;7.83;70.71;101300.22;5116429;27;46508;-76
2022/01/08 05:58:59;;;;;;;;;1.75;0.00;;;;;7.86;70.74;101312.56;5116291;27;53941;-76
2022/01/08 06:01:24;;;;;;;;;1.75;0.00;;;;;7.84;70.55;101294.13;5116942;27;45926;-76
2022/01/08 06:03:50;;;;;;;;;1.00;0.00;;;;;7.92;70.63;101312.72;5098407;27;45530;-76
2022/01/08 06:06:15;;;;;;;;;0.00;0.00;;;;;7.92;70.76;101315.34;5116198;27;61640;-77
2022/01/08 06:08:41;;;;;;;;;0.00;0.00;;;;;7.92;70.68;101318.00;5116556;27;57919;-76
2022/01/08 06:11:06;;;;;;;;;2.00;0.00;;;;;7.96;70.41;101317.25;5116551;27;50414;-77
2022/01/08 06:13:31;;;;;;;;;0.00;0.00;;;;;7.96;70.74;101308.47;5116342;27;52535;-77
2022/01/08 06:15:57;;;;;;;;;0.00;0.00;;;;;8.00;70.65;101310.34;5115955;27;58459;-76
2022/01/08 06:18:22;;;;;;;;;2.25;0.00;;;;;8.00;70.29;101303.34;5116944;27;45571;-77
2022/01/08 06:20:47;;;;;;;;;1.00;1.00;;;;;7.98;70.59;101299.75;5097403;27;55636;-76
2022/01/08 06:23:13;;;;;;;;;0.00;0.00;;;;;8.00;70.47;101290.19;5116280;27;45621;-76
2022/01/08 06:25:43;;;;;;;;;1.25;0.00;;;;;8.00;70.72;101284.03;5116046;27;53539;-77
2022/01/08 06:28:08;;;;;;;;;1.00;0.00;;;;;8.01;70.53;101277.94;5115087;27;45620;-76
2022/01/08 06:30:34;;;;;;;;;0.00;0.00;;;;;8.05;70.65;101283.31;5116000;27;46598;-76
2022/01/08 06:32:59;;;;;;;;;0.00;0.00;;;;;8.07;70.35;101292.13;5116243;27;51913;-76
2022/01/08 06:35:25;;;;;;;;;1.00;1.00;;;;;8.09;70.41;101298.31;5115393;27;59592;-77
2022/01/08 06:37:50;;;;;;;;;3.00;0.00;;;;;8.12;70.78;101290.53;5115416;27;59027;-76
2022/01/08 06:40:15;;;;;;;;;1.00;1.00;;;;;8.16;70.72;101290.63;5116106;27;45770;-76
2022/01/08 06:42:41;;;;;;;;;1.50;0.00;;;;;8.20;70.68;101285.47;5116401;27;50948;-76
2022/01/08 06:45:06;;;;;;;;;1.00;0.00;;;;;8.24;70.64;101274.19;5115726;27;56990;-77
2022/01/08 06:47:33;;;;;;;;;0.00;0.00;;;;;8.27;70.81;101274.28;5116299;27;45408;-76
2022/01/08 06:49:59;;;;;;;;;1.67;0.00;;;;;8.26;70.75;101269.88;5116123;27;45516;-76
2022/01/08 06:52:24;;;;;;;;;0.00;0.00;;;;;8.33;70.74;101269.19;5090746;27;45533;-76
2022/01/08 06:54:49;;;;;;;;;1.67;0.00;;;;;8.36;70.37;101263.13;5115046;27;64041;-76
2022/01/08 06:57:15;;;;;;;;;2.00;0.00;;;;;8.40;70.41;101265.91;5115481;27;55937;-76
2022/01/08 06:59:40;;;;;;;;;2.00;0.00;;;;;8.43;70.34;101258.94;5116040;27;49252;-76
2022/01/08 07:02:06;;;;;;;;;3.67;0.00;;;;;8.42;70.08;101254.53;5115288;27;48727;-77
2022/01/08 07:04:31;;;;;;;;;2.00;1.00;;;;;8.44;70.40;101266.00;5115317;27;59371;-77
2022/01/08 07:06:58;;;;;;;;;2.00;0.00;;;;;8.44;70.08;101258.09;5114199;27;60718;-76
2022/01/08 07:09:23;;;;;;;;;1.33;0.00;;;;;8.45;70.42;101262.50;5111991;27;45428;-76
2022/01/08 07:11:48;;;;;;;;;0.33;0.00;;;;;8.41;70.42;101256.25;5110142;27;45461;-76
2022/01/08 07:14:14;;;;;;;;;1.00;1.00;;;;;8.36;69.91;101248.28;5110861;27;45402;-76
2022/01/08 07:16:39;;;;;;;;;3.00;0.67;;;;;8.34;70.36;101243.78;5110687;27;59472;-76
2022/01/08 07:19:05;;;;;;;;;1.67;1.00;;;;;8.33;70.85;101229.72;5111888;27;45434;-75
2022/01/08 07:21:30;;;;;;;;;1.00;1.00;;;;;8.29;70.90;101211.19;5104603;27;50011;-77
2022/01/08 07:23:56;;;;;;;;;1.00;1.00;;;;;8.39;70.59;101218.50;5111575;27;46364;-77
2022/01/08 07:26:21;;;;;;;;;1.67;0.33;;;;;8.35;70.52;101228.00;5110547;27;45471;-76
2022/01/08 07:28:46;;;;;;;;;1.00;1.00;;;;;8.31;70.54;101223.53;5095570;27;45495;-76
2022/01/08 07:31:12;;;;;;;;;3.00;0.67;;;;;8.29;70.84;101216.44;5114928;27;53454;-76
2022/01/08 07:33:37;;;;;;;;;0.00;0.00;;;;;8.27;71.01;101221.69;5115186;27;45583;-77
2022/01/08 07:36:03;;;;;;;;;3.00;1.33;;;;;8.27;70.95;101226.06;5113631;27;61429;-78
2022/01/08 07:38:28;;;;;;;;;3.00;1.00;;;;;8.28;71.12;101227.81;5115271;27;45455;-77
2022/01/08 07:40:57;;;;;;;;;1.67;1.00;;;;;8.31;71.07;101228.81;5113443;27;45511;-77
2022/01/08 07:43:22;;;;;;;;;3.00;1.67;;;;;8.32;71.33;101233.22;5109804;27;60151;-77
2022/01/08 07:45:48;;;;;;;;;1.33;1.00;;;;;8.37;71.02;101223.72;5095915;27;45471;-78
2022/01/08 07:48:16;;;;;;;;;5.33;2.00;;;;;8.40;71.14;101221.16;5095670;27;45443;-78
2022/01/08 07:50:42;;;;;;;;;1.67;1.00;;;;;8.45;71.12;101210.75;5096307;27;45484;-77
2022/01/08 07:53:07;;;;;;;;;1.33;1.00;;;;;8.47;71.32;101214.34;5113555;27;46253;-77
2022/01/08 07:55:33;;;;;;;;;5.00;1.00;;;;;8.50;71.46;101209.13;5114137;27;60054;-77
2022/01/08 07:57:58;;;;;;;;;3.00;1.33;;;;;8.53;71.40;101200.44;5114096;27;45498;-77
2022/01/08 08:00:24;;;;;;;;;4.67;2.00;;;;;8.56;71.40;101203.13;5114596;27;54445;-77
2022/01/08 08:02:50;;;;;;;;;3.00;3.00;;;;;8.54;71.52;101197.84;5095846;27;46501;-76
2022/01/08 08:05:15;;;;;;;;;7.00;3.00;;;;;8.60;71.46;101200.63;5114491;27;45499;-77
2022/01/08 08:07:41;;;;;;;;;4.50;2.00;;;;;8.63;71.47;101194.56;5113775;27;53407;-77
2022/01/08 08:10:11;;;;;;;;;7.00;3.00;;;;;8.66;71.45;101195.50;5114797;27;45432;-77
2022/01/08 08:12:38;;;;;;;;;5.00;2.00;;;;;8.65;71.51;101190.22;5095370;27;47838;-77
2022/01/08 08:15:05;;;;;;;;;7.25;3.00;;;;;8.67;71.65;101191.13;5096217;27;45536;-77
2022/01/08 08:17:30;;;;;;;;;6.33;2.33;;;;;8.75;71.49;101186.06;5114505;27;45488;-78
2022/01/08 08:19:59;;;;;;;;;5.67;3.00;;;;;8.78;71.69;101178.22;5096182;27;45502;-77
2022/01/08 08:22:25;;;;;;;;;4.00;3.25;;;;;8.81;71.66;101178.31;5115465;27;46642;-78
2022/01/08 08:24:50;;;;;;;;;7.67;3.33;;;;;8.84;71.65;101174.03;5114094;27;53875;-77
2022/01/08 08:27:16;;;;;;;;;5.25;3.00;;;;;8.85;71.72;101162.63;5113996;27;45422;-79
2022/01/08 08:29:41;;;;;;;;;11.00;3.00;;;;;8.87;71.51;101158.28;5095493;27;45875;-78
2022/01/08 08:32:07;;;;;;;;;4.50;3.00;;;;;8.92;72.02;101163.66;5113658;27;45555;-77
2022/01/08 08:34:33;;;;;;;;;6.00;2.00;;;;;8.92;71.98;101156.63;5113682;27;45532;-76
2022/01/08 08:36:58;;;;;;;;;6.00;3.00;;;;;8.97;71.92;101143.56;5113641;27;45537;-77
2022/01/08 08:39:24;;;;;;;;;3.33;2.00;;;;;8.93;72.71;101129.44;5116644;27;45515;-77
2022/01/08 08:41:49;;;;;;;;;7.00;1.00;;;;;9.02;72.91;101136.66;5097399;27;54410;-77
2022/01/08 08:44:15;;;;;;;;;3.00;2.00;;;;;9.03;73.18;101127.91;5098484;27;45380;-78
2022/01/08 08:46:40;;;;;;;;;2.33;2.33;;;;;9.05;73.03;101127.94;5115489;27;45908;-78
2022/01/08 08:49:06;;;;;;;;;4.00;1.00;;;;;9.07;72.94;101128.88;5114800;27;45500;-78
2022/01/08 08:51:31;;;;;;;;;1.00;1.00;;;;;9.07;72.98;101121.84;5094424;27;45965;-78
2022/01/08 08:53:56;;;;;;;;;4.33;2.00;;;;;9.07;73.10;101118.34;5110761;27;45533;-78
2022/01/08 08:56:22;;;;;;;;;6.50;4.25;;;;;9.08;73.22;101112.19;5110559;27;55373;-77
2022/01/08 08:58:47;;;;;;;;;8.33;2.67;;;;;9.10;73.24;101116.63;5093620;27;45496;-77
2022/01/08 09:01:13;;;;;;;;;2.50;2.50;;;;;9.13;73.36;101111.44;5080303;27;62945;-80
2022/01/08 09:03:38;;;;;;;;;5.25;3.00;;;;;9.21;73.32;101105.44;5112135;27;45686;-77
2022/01/08 09:06:03;;;;;;;;;6.00;3.00;;;;;9.22;73.54;101097.59;5109332;27;45840;-77
2022/01/08 09:08:29;;;;;;;;;6.00;1.33;;;;;9.25;73.32;101102.00;5110431;27;45637;-77
2022/01/08 09:10:54;;;;;;;;;2.00;2.00;;;;;9.26;73.65;101091.50;5113175;27;45980;-76
2022/01/08 09:13:22;;;;;;;;;2.67;2.33;;;;;9.32;73.57;101091.66;5113382;27;45495;-77
2022/01/08 09:15:50;;;;;;;;;5.33;1.33;;;;;9.37;73.57;101095.22;5114035;27;45807;-76
2022/01/08 09:18:18;;;;;;;;;6.67;2.67;;;;;9.36;73.30;101080.28;5114014;27;45484;-76
2022/01/08 09:20:43;;;;;;;;;2.00;2.00;;;;;9.41;73.54;101069.84;5199240;22;45937;-76
2022/01/08 09:23:08;;;;;;;;;6.67;3.00;;;;;9.45;73.28;101066.41;5070746;28;61390;-75
2022/01/08 09:25:34;;;;;;;;;4.00;3.00;;;;;9.54;73.67;101071.88;5065645;28;48366;-77
2022/01/08 09:27:59;;;;;;;;;5.33;2.00;;;;;9.59;73.36;101067.56;5069760;28;45709;-76
2022/01/08 09:30:25;;;;;;;;;7.67;2.00;;;;;9.65;73.33;101066.81;5068306;28;45636;-77
2022/01/08 09:32:51;;;;;;;;;1.00;1.00;;;;;9.74;73.04;101066.06;5054638;28;45797;-75
2022/01/08 09:35:16;;;;;;;;;4.67;3.00;;;;;9.71;73.03;101051.97;5072328;28;45760;-72
2022/01/08 09:37:42;;;;;;;;;4.67;4.67;;;;;9.82;73.12;101060.06;5072727;28;45498;-74
2022/01/08 09:40:09;;;;;;;;;5.67;4.00;;;;;9.81;73.04;101047.75;5067848;28;60517;-72
2022/01/08 09:42:34;;;;;;;;;7.00;4.00;;;;;9.87;73.04;101050.50;5063168;28;45721;-75
2022/01/08 09:44:59;;;;;;;;;5.33;2.67;;;;;9.91;72.82;101040.91;5035580;28;45424;-74
2022/01/08 09:47:25;;;;;;;;;3.00;3.00;;;;;9.94;72.82;101033.91;5069906;28;55380;-73
2022/01/08 09:49:50;;;;;;;;;8.33;3.67;;;;;9.97;72.84;101028.69;5051811;28;61885;-75
2022/01/08 09:52:16;;;;;;;;;10.33;3.00;;;;;10.00;73.06;101019.03;5070510;28;45532;-76
2022/01/08 09:54:41;;;;;;;;;6.33;4.67;;;;;10.03;73.15;101020.00;5071344;28;53071;-75
2022/01/08 09:57:06;;;;;;;;;4.67;2.00;;;;;10.06;73.20;101016.50;5071692;28;45554;-76
2022/01/08 09:59:33;;;;;;;;;2.00;2.00;;;;;10.07;73.34;100999.81;5052475;28;46155;-75
2022/01/08 10:01:59;;;;;;;;;4.67;2.00;;;;;10.12;73.21;100996.41;5071153;28;45586;-75
2022/01/08 10:04:26;;;;;;;;;3.00;3.00;;;;;10.18;72.96;101001.75;5037061;28;45570;-77
2022/01/08 10:06:51;;;;;;;;;2.00;2.00;;;;;10.23;72.93;100999.19;5054629;28;45484;-75
2022/01/08 10:09:16;;;;;;;;;5.33;3.00;;;;;10.24;73.12;101003.63;5069319;27;55397;-77
2022/01/08 10:11:49;;;;;;;;;4.67;3.33;;;;;10.26;72.93;100993.97;5071570;28;57389;-79
2022/01/08 10:14:27;;;;;;;;;4.00;2.33;;;;;10.30;73.01;100992.28;5071264;28;45431;-78
2022/01/08 10:19:36;;;;;;;;;6.00;2.00;;;;;10.28;73.05;100980.78;5048571;28;45914;-76
2022/01/08 10:22:02;;;;;;;;;3.00;3.00;;;;;10.25;73.22;100972.84;5061532;28;49457;-76
2022/01/08 10:24:28;;;;;;;;;5.33;2.67;;;;;10.31;73.08;100984.38;5023936;28;45445;-76
2022/01/08 10:27:03;;;;;;;;;4.00;2.00;;;;;10.28;73.18;100976.44;5061595;28;45447;-75
2022/01/08 10:29:28;;;;;;;;;2.33;2.33;;;;;10.26;73.56;100962.31;5073770;28;47525;-75
2022/01/08 10:31:55;;;;;;;;;6.33;2.67;;;;;10.27;73.34;100969.34;5075113;28;45430;-75
2022/01/08 10:34:22;;;;;;;;;6.00;3.33;;;;;10.20;73.57;100954.28;5074384;28;45544;-75
2022/01/08 10:36:57;;;;;;;;;7.67;4.67;;;;;10.25;73.75;100962.31;5057131;28;45455;-77
2022/01/08 10:39:28;;;;;;;;;7.67;4.00;;;;;10.24;73.97;100953.50;5074864;28;46225;-78
2022/01/08 10:41:55;;;;;;;;;5.00;3.00;;;;;10.21;74.83;100929.66;5039785;28;45488;-78
2022/01/08 10:44:21;;;;;;;;;4.67;2.67;;;;;10.23;74.75;100935.88;5037095;28;45860;-79
2022/01/08 10:47:10;;;;;;;;;7.00;3.00;;;;;10.20;75.80;100931.41;5075449;28;45485;-77
2022/01/08 10:49:46;;;;;;;;;8.33;2.00;;;;;10.10;74.99;100913.69;5073804;28;46642;-78
2022/01/08 10:52:16;;;;;;;;;6.67;2.00;;;;;10.18;75.10;100916.44;5057173;28;46176;-78
2022/01/08 10:54:42;;;;;;;;;7.00;3.00;;;;;10.22;74.78;100912.94;5071059;28;45507;-77
2022/01/08 10:57:08;;;;;;;;;8.00;4.00;;;;;10.16;74.47;100895.28;5065944;28;45636;-79
2022/01/08 10:59:35;;;;;;;;;10.67;2.33;;;;;10.18;74.41;100888.31;5072307;28;45539;-79
2022/01/08 11:02:02;;;;;;;;;7.00;3.00;;;;;10.26;74.38;100895.47;5056583;28;45620;-79
2022/01/08 11:04:40;;;;;;;;;4.00;2.00;;;;;10.21;74.28;100890.97;5053188;28;45641;-77
2022/01/08 11:07:09;;;;;;;;;8.00;4.00;;;;;10.20;74.35;100867.19;5075154;28;45521;-77
2022/01/08 11:09:36;;;;;;;;;4.67;3.00;;;;;10.26;74.34;100885.78;5074570;28;46576;-77
2022/01/08 11:12:05;;;;;;;;;8.33;2.67;;;;;10.24;74.25;100882.25;5036595;28;45477;-78
2022/01/08 11:17:26;;;;;;;;;8.00;3.33;;;;;10.25;74.36;100851.47;5073853;28;45470;-77
2022/01/08 11:19:53;;;;;;;;;10.00;5.33;;;;;10.26;74.68;100848.84;5074258;28;46316;-78
2022/01/08 11:22:27;;;;;;;;;8.33;3.33;;;;;10.29;74.66;100832.16;5073910;27;45439;-78
2022/01/08 11:25:12;;;;;;;;;7.67;2.67;;;;;10.29;74.57;100813.69;5074432;28;45541;-77
2022/01/08 11:28:03;;;;;;;;;6.33;3.00;;;;;10.33;74.50;100818.13;5066579;28;45837;-77
2022/01/08 11:30:39;;;;;;;;;5.33;2.00;;;;;10.38;74.51;100821.69;5072198;28;45975;-77
2022/01/08 11:33:11;;;;;;;;;8.00;7.00;;;;;10.39;74.36;100815.59;5072856;28;45891;-78
2022/01/08 11:35:37;;;;;;;;;9.00;5.33;;;;;10.40;74.31;100801.50;5044894;28;45746;-77
2022/01/08 11:38:07;;;;;;;;;7.33;2.67;;;;;10.39;74.11;100791.81;5073753;28;45687;-77
2022/01/08 11:40:34;;;;;;;;;6.00;2.00;;;;;10.42;74.30;100794.47;5070248;28;46053;-75
2022/01/08 11:43:02;;;;;;;;;8.00;3.00;;;;;10.38;74.07;100777.72;5077556;28;45535;-78
2022/01/08 11:45:29;;;;;;;;;7.33;2.00;;;;;10.42;74.16;100776.00;5077025;28;46007;-77
2022/01/08 11:47:57;;;;;;;;;6.00;3.00;;;;;10.38;74.22;100753.06;5056078;28;45680;-77
2022/01/08 11:50:27;;;;;;;;;3.33;2.00;;;;;10.40;74.35;100752.25;5064159;28;46632;-77
2022/01/08 11:53:17;;;;;;;;;3.33;2.33;;;;;10.40;74.18;100743.44;5053915;28;45443;-77
2022/01/08 11:55:44;;;;;;;;;8.00;2.00;;;;;10.34;74.31;100723.16;5067734;28;45726;-76